Nearby METAR Reports

 

PAEN - Kenai, Alaska, USA
Distance from station: ESE 2mi, 4km
Updated: Tue, 21-May-2019 10:53pm AKDT
Mostly cloudy
Mostly cloudy
 Wind from S
Wind: S 10 mph , 17 km/h
Temperature: 46°F , 8°C
Wind Chill: 41°F , 5°C
Dew Point: 37°F , 3°C
Humidity: 71%
Barometer: 30.12 inHg , 1020 hPa
Clouds: Mostly cloudy
Visibility: 10 miles , 16 km
Cloud details: Mostly cloudy 6000 ft
2019/05/22 06:53 PAEN 220653Z AUTO 19009KT 10SM BKN060 08/03 A3012 RMK AO2 SLP202 T00780033 TSNO
PASX - Soldotna, Alaska, USA
Distance from station: SE 12mi, 19km
Updated: Tue, 21-May-2019 10:56pm AKDT
Clear
Clear
 Wind from calm
Wind: Calm
Temperature: 48°F , 9°C
Dew Point: 37°F , 3°C
Humidity: 66%
Barometer: 30.14 inHg , 1020.7 hPa
Clouds: Clear
Visibility: 10 miles , 16 km
2019/05/22 06:56 PASX 220656Z AUTO 00000KT 10SM CLR 09/03 A3014 RMK AO2 SLP217 T00890028
 
PANC - Anchorage Intl, Alaska, USA
Distance from station: NE 59mi, 96km
Updated: Tue, 21-May-2019 10:53pm AKDT
Few Clouds
Few Clouds
 Wind from calm
Wind: Calm
Temperature: 50°F , 10°C
Dew Point: 37°F , 3°C
Humidity: 62%
Barometer: 30.09 inHg , 1019 hPa
Clouds: Few Clouds
Visibility: 10 miles , 16 km
Cloud details: Few Clouds 4500 ft
Few Clouds 20000 ft
2019/05/22 06:53 PANC 220653Z 00000KT 10SM FEW045 FEW200 10/03 A3009 RMK AO2 SLP190 T01000033 $
PALH - Anchorage/Lake H, Alaska, USA
Distance from station: NE 61mi, 99km
Updated: Tue, 21-May-2019 10:53pm AKDT
Clear
Clear
 Wind from E
Wind: E 3 mph , 6 km/h
Temperature: 50°F , 10°C
Dew Point: 37°F , 3°C
Humidity: 62%
Barometer: 30.10 inHg , 1019.3 hPa
Clouds: Clear
Visibility: 10 miles , 16 km
2019/05/22 06:53 PALH 220653Z AUTO 10003KT 10SM CLR 10/03 A3010 RMK AO2 SLP193 T01000033 TSNO $
 
PAHO - Homer, Alaska, USA
Distance from station: S 66mi, 106km
Updated: Tue, 21-May-2019 10:53pm AKDT
Clear
Clear
 Wind from calm
Wind: Calm
Temperature: 46°F , 8°C
Dew Point: 39°F , 4°C
Humidity: 76%
Barometer: 30.12 inHg , 1020 hPa
Clouds: Clear
Visibility: 10 miles , 16 km
2019/05/22 06:53 PAHO 220653Z AUTO 00000KT 10SM CLR 08/04 A3012 RMK AO2 SLP201 T00780044 TSNO
PAMR - Anchorage/Merril, Alaska, USA
Distance from station: NE 66mi, 106km
Updated: Tue, 21-May-2019 10:53pm AKDT
Clear
Clear
 Wind from calm
Wind: Calm
Temperature: 52°F , 11°C
Dew Point: 37°F , 3°C
Humidity: 58%
Barometer: 30.09 inHg , 1019 hPa
Clouds: Clear
Visibility: 10 miles , 16 km
2019/05/22 06:53 PAMR 220653Z 00000KT 10SM CLR 11/03 A3009 RMK AO2 SLP190 T01060028
 
PAED - Elmendorf Afb, Alaska, USA
Distance from station: NE 69mi, 110km
Updated: Tue, 21-May-2019 10:56pm AKDT
Haze, Clear
Haze, Clear
 Wind from calm
Wind: Calm
Temperature: 48°F , 9°C
Dew Point: 37°F , 3°C
Humidity: 66%
Barometer: 30.09 inHg , 1019 hPa
Summary: Haze
Clouds: Clear
Visibility: 10 miles , 16 km
2019/05/22 06:56 PAED 220656Z AUTO 00000KT 10SM HZ CLR 09/03 A3009 RMK AO2 VIS 1 7/8 RWY06 VIS 1 7/8 RWY16 VIS 1 7/8 RWY34 SLP186 T00920032
PAWD - Seward, Alaska, USA
Distance from station: ESE 71mi, 115km
Updated: Tue, 21-May-2019 10:53pm AKDT
Clear
Clear
 Wind from calm
Wind: Calm
Temperature: 48°F , 9°C
Dew Point: 43°F , 6°C
Humidity: 82%
Barometer: 30.13 inHg , 1020.3 hPa
Clouds: Clear
Visibility: 10 miles , 16 km
2019/05/22 06:53 PAWD 220653Z AUTO 00000KT 10SM CLR 09/06 A3013 RMK AO2 SLP201 T00890056 TSNO
 
PASC - Deadhorse, Alaska, USA
Distance from station: ENE 670mi, 1078km
Updated: Tue, 21-May-2019 11:05pm AKDT
Mostly cloudy
Mostly cloudy
 Wind from N
Wind: N 6 mph , 9 km/h
Temperature: 34°F , 1°C
Wind Chill: 29°F , -2°C
Dew Point: 28°F , -2°C
Humidity: 81%
Barometer: 30.08 inHg , 1018.6 hPa
Clouds: Mostly cloudy
Visibility: 7 miles , 11 km
Cloud details: Few Clouds 200 ft
Mostly cloudy 400 ft
Mostly cloudy 12000 ft
Mostly cloudy 20000 ft
2019/05/22 07:05 PASC 220705Z 01005KT 7SM FEW002 BKN004 BKN120 BKN200 01/M02 A3008 RMK AO2 T00061017
PAAD - Point Thomson, Alaska, USA
Distance from station: ENE 680mi, 1094km
Updated: Tue, 21-May-2019 10:55pm AKDT
Clear
Clear
 Wind from NW
Wind: NW 3 mph , 6 km/h
Temperature: 32°F , 0°C
Dew Point: 30°F , -1°C
Humidity: 93%
Barometer: 30.05 inHg , 1017.6 hPa
Clouds: Clear
Visibility: 10 miles , 16 km
2019/05/22 06:55 PAAD 220655Z AUTO 32003KT 10SM CLR 00/M01 A3005 RMK AO2 T00001007


kenaipeople.com website

Dans Automotive

Lower Peninsula Power Sports

Freddies RoadHouse

Alaska Weather Net